Observation data for Dimmitt on 03/11/2018      Previous  Date  Next       Current Mesonet Observations  Soil Data  Daily Summary Page  Observations in Plain Language
KDMS 110600Z 02022G28KT 10/M06 A3005 RMK A01 T01021062  RH  031%=      5-min Rain = 0
KDMS 110605Z 02024G30KT 10/M06 A3005 RMK A01 T01021062  RH  031%=      5-min Rain = 0
KDMS 110610Z 02024G31KT 10/M06 A3006 RMK A01 T01021060  RH  031%=      5-min Rain = 0
KDMS 110615Z 02024G30KT 10/M06 A3006 RMK A01 T01011059  RH  032%=      5-min Rain = 0
KDMS 110620Z 02025KT 10/M06 A3007 RMK A01 T01011058  RH  032%=      5-min Rain = 0
KDMS 110625Z 02022G29KT 10/M06 A3007 RMK A01 T00991058  RH  033%=      5-min Rain = 0
KDMS 110630Z 02025G36KT 10/M06 A3007 RMK A01 T00991058  RH  033%=      5-min Rain = 0
KDMS 110635Z 02024G33KT 10/M06 A3007 RMK A01 T00981057  RH  033%=      5-min Rain = 0
KDMS 110640Z 02022G28KT 10/M06 A3007 RMK A01 T00971057  RH  033%=      5-min Rain = 0
KDMS 110645Z 02020G26KT 10/M06 A3008 RMK A01 T00951056  RH  034%=      5-min Rain = 0
KDMS 110650Z 02021G28KT 10/M06 A3008 RMK A01 T00951056  RH  034%=      5-min Rain = 0
KDMS 110655Z 02020G27KT 09/M06 A3008 RMK A01 T00941055  RH  035%=      5-min Rain = 0
KDMS 110700Z 02021G26KT 09/M05 A3009 RMK A01 T00931054  RH  035%=      5-min Rain = 0
KDMS 110705Z 02023KT 09/M05 A3009 RMK A01 T00921054  RH  035%=      5-min Rain = 0
KDMS 110710Z 02022G31KT 09/M05 A301 RMK A01 T00921053  RH  036%=      5-min Rain = 0
KDMS 110715Z 02019G25KT 09/M05 A3009 RMK A01 T00901053  RH  036%=      5-min Rain = 0
KDMS 110720Z 02019G25KT 09/M05 A301 RMK A01 T00901053  RH  036%=      5-min Rain = 0
KDMS 110725Z 02019G24KT 09/M05 A301 RMK A01 T00891054  RH  036%=      5-min Rain = 0
KDMS 110730Z 02019G24KT 09/M05 A301 RMK A01 T00881054  RH  036%=      5-min Rain = 0
KDMS 110735Z 02018KT 09/M05 A301 RMK A01 T00881054  RH  036%=      5-min Rain = 0
KDMS 110740Z 02019G24KT 09/M06 A301 RMK A01 T00871055  RH  036%=      5-min Rain = 0
KDMS 110745Z 02017KT 09/M05 A301 RMK A01 T00861054  RH  037%=      5-min Rain = 0
KDMS 110750Z 02017G22KT 09/M06 A301 RMK A01 T00851055  RH  037%=      5-min Rain = 0
KDMS 110755Z 02019G26KT 09/M06 A301 RMK A01 T00851055  RH  037%=      5-min Rain = 0
KDMS 110800Z 02018G23KT 08/M06 A301 RMK A01 T00841055  RH  037%=      5-min Rain = 0
KDMS 110805Z 02019G24KT 08/M05 A301 RMK A01 T00841054  RH  037%=      5-min Rain = 0
KDMS 110810Z 01018KT 08/M05 A301 RMK A01 T00831054  RH  037%=      5-min Rain = 0
KDMS 110815Z 01017G22KT 08/M05 A3011 RMK A01 T00821054  RH  038%=      5-min Rain = 0
KDMS 110820Z 01017G22KT 08/M06 A3011 RMK A01 T00821055  RH  038%=      5-min Rain = 0
KDMS 110825Z 01015KT 08/M05 A3011 RMK A01 T00811054  RH  038%=      5-min Rain = 0
KDMS 110830Z 01016KT 08/M05 A3011 RMK A01 T00791054  RH  038%=      5-min Rain = 0
KDMS 110835Z 01017G23KT 08/M05 A3011 RMK A01 T00791054  RH  039%=      5-min Rain = 0
KDMS 110840Z 01017KT 08/M05 A3011 RMK A01 T00791054  RH  039%=      5-min Rain = 0
KDMS 110845Z 02018KT 08/M05 A3011 RMK A01 T00781054  RH  039%=      5-min Rain = 0
KDMS 110850Z 02018KT 08/M05 A3011 RMK A01 T00781054  RH  039%=      5-min Rain = 0
KDMS 110855Z 02016G22KT 08/M06 A3011 RMK A01 T00781055  RH  039%=      5-min Rain = 0
KDMS 110900Z 02018KT 08/M06 A3011 RMK A01 T00781055  RH  038%=      5-min Rain = 0
KDMS 110905Z 02016KT 08/M06 A3011 RMK A01 T00771056  RH  038%=      5-min Rain = 0
KDMS 110910Z 02017KT 08/M06 A3011 RMK A01 T00771057  RH  038%=      5-min Rain = 0
KDMS 110915Z 01018G23KT 08/M06 A3012 RMK A01 T00771058  RH  038%=      5-min Rain = 0
KDMS 110920Z 02018G23KT 08/M06 A3012 RMK A01 T00761060  RH  037%=      5-min Rain = 0
KDMS 110925Z 01017G22KT 08/M06 A3012 RMK A01 T00761061  RH  037%=      5-min Rain = 0
KDMS 110930Z 01018G23KT 08/M06 A3012 RMK A01 T00751062  RH  037%=      5-min Rain = 0
KDMS 110935Z 01019KT 08/M06 A3012 RMK A01 T00751063  RH  037%=      5-min Rain = 0
KDMS 110940Z 01018G25KT 07/M06 A3013 RMK A01 T00741064  RH  037%=      5-min Rain = 0
KDMS 110945Z 02018G24KT 07/M06 A3013 RMK A01 T00741064  RH  037%=      5-min Rain = 0
KDMS 110950Z 02018G25KT 07/M07 A3013 RMK A01 T00731065  RH  037%=      5-min Rain = 0
KDMS 110955Z 02019G25KT 07/M07 A3013 RMK A01 T00721065  RH  037%=      5-min Rain = 0
KDMS 111000Z 02021G27KT 07/M07 A3013 RMK A01 T00711065  RH  037%=      5-min Rain = 0
KDMS 111005Z 02020G25KT 07/M07 A3013 RMK A01 T00701067  RH  037%=      5-min Rain = 0
KDMS 111010Z 02021G27KT 07/M07 A3013 RMK A01 T00691068  RH  037%=      5-min Rain = 0
KDMS 111015Z 01018G24KT 07/M07 A3013 RMK A01 T00671068  RH  037%=      5-min Rain = 0
KDMS 111020Z 01019G25KT 07/M07 A3014 RMK A01 T00661070  RH  037%=      5-min Rain = 0
KDMS 111025Z 01022KT 07/M07 A3014 RMK A01 T00651073  RH  037%=      5-min Rain = 0
KDMS 111030Z 01021G26KT 06/M07 A3014 RMK A01 T00631074  RH  037%=      5-min Rain = 0
KDMS 111035Z 01021G26KT 06/M08 A3014 RMK A01 T00621076  RH  036%=      5-min Rain = 0
KDMS 111040Z 01022G27KT 06/M08 A3015 RMK A01 T00611079  RH  036%=      5-min Rain = 0
KDMS 111045Z 01022G27KT 06/M08 A3015 RMK A01 T00601080  RH  036%=      5-min Rain = 0
KDMS 111050Z 01024G31KT 06/M08 A3015 RMK A01 T00591081  RH  036%=      5-min Rain = 0
KDMS 111055Z 01024G29KT 06/M08 A3015 RMK A01 T00571080  RH  036%=      5-min Rain = 0
KDMS 111100Z 01025G32KT 06/M08 A3014 RMK A01 T00561080  RH  037%=      5-min Rain = 0
KDMS 111105Z 01026G34KT 05/M08 A3014 RMK A01 T00541079  RH  038%=      5-min Rain = 0
KDMS 111110Z 01028G35KT 05/M08 A3013 RMK A01 T00531079  RH  038%=      5-min Rain = 0
KDMS 111115Z 01025G32KT 05/M08 A3014 RMK A01 T00521078  RH  038%=      5-min Rain = 0
KDMS 111120Z 01028G34KT 05/M08 A3014 RMK A01 T00521079  RH  038%=      5-min Rain = 0
KDMS 111125Z 01024G29KT 05/M08 A3014 RMK A01 T00511080  RH  038%=      5-min Rain = 0
KDMS 111130Z 01025G34KT 05/M08 A3015 RMK A01 T00501081  RH  038%=      5-min Rain = 0
KDMS 111135Z 01023G29KT 05/M08 A3016 RMK A01 T00481082  RH  039%=      5-min Rain = 0
KDMS 111140Z 01020KT 05/M08 A3016 RMK A01 T00461081  RH  039%=      5-min Rain = 0
KDMS 111145Z 01019KT 05/M08 A3017 RMK A01 T00451082  RH  039%=      5-min Rain = 0
KDMS 111150Z 01020G26KT 04/M08 A3017 RMK A01 T00431083  RH  039%=      5-min Rain = 0
KDMS 111155Z 01019G26KT 04/M08 A3018 RMK A01 T00421084  RH  039%=      5-min Rain = 0
KDMS 111200Z 01019G27KT 04/M08 A3018 RMK A01 T00411084  RH  040%=      5-min Rain = 0
KDMS 111205Z 01019G24KT 04/M08 A3018 RMK A01 T00411083  RH  040%=      5-min Rain = 0
KDMS 111210Z 01018KT 04/M08 A3018 RMK A01 T00401081  RH  041%=      5-min Rain = 0
KDMS 111215Z 01020G26KT 04/M08 A3019 RMK A01 T00391080  RH  041%=      5-min Rain = 0
KDMS 111220Z 01018G23KT 04/M08 A3019 RMK A01 T00381079  RH  042%=      5-min Rain = 0
KDMS 111225Z 01020G27KT 04/M08 A3019 RMK A01 T00361078  RH  043%=      5-min Rain = 0
KDMS 111230Z 01019G26KT 03/M08 A3019 RMK A01 T00341077  RH  044%=      5-min Rain = 0
KDMS 111235Z 01020G26KT 03/M08 A3019 RMK A01 T00331077  RH  044%=      5-min Rain = 0
KDMS 111240Z 01019G28KT 03/M08 A302 RMK A01 T00321076  RH  045%=      5-min Rain = 0
KDMS 111245Z 02018G24KT 03/M08 A302 RMK A01 T00321076  RH  045%=      5-min Rain = 0
KDMS 111250Z 01019KT 03/M07 A302 RMK A01 T00301074  RH  046%=      5-min Rain = 0
KDMS 111255Z 01017KT 03/M07 A302 RMK A01 T00291073  RH  047%=      5-min Rain = 0
KDMS 111300Z 01019G26KT 03/M07 A3021 RMK A01 T00281072  RH  048%=      5-min Rain = 0
KDMS 111305Z 01019KT 03/M07 A3022 RMK A01 T00281070  RH  049%=      5-min Rain = 0
KDMS 111310Z 01018KT 03/M07 A3021 RMK A01 T00271068  RH  050%=      5-min Rain = 0
KDMS 111315Z 02019KT 03/M07 A3021 RMK A01 T00261066  RH  051%=      5-min Rain = 0
KDMS 111320Z 01015G21KT 03/M07 A3022 RMK A01 T00261065  RH  051%=      5-min Rain = 0
KDMS 111325Z 01018G23KT 03/M07 A3022 RMK A01 T00251066  RH  051%=      5-min Rain = 0
KDMS 111330Z 01016KT 02/M06 A3022 RMK A01 T00241064  RH  052%=      5-min Rain = 0
KDMS 111335Z 01017KT 02/M06 A3022 RMK A01 T00241063  RH  052%=      5-min Rain = 0
KDMS 111340Z 01015KT 03/M06 A3023 RMK A01 T00251064  RH  052%=      5-min Rain = 0
KDMS 111345Z 01018KT 03/M06 A3023 RMK A01 T00251063  RH  053%=      5-min Rain = 0
KDMS 111350Z 01017KT 02/M06 A3024 RMK A01 T00241062  RH  053%=      5-min Rain = 0
KDMS 111355Z 01018KT 02/M06 A3024 RMK A01 T00231062  RH  054%=      5-min Rain = 0
KDMS 111400Z 01018KT 02/M06 A3024 RMK A01 T00221062  RH  054%=      5-min Rain = 0
KDMS 111405Z 01017G22KT 02/M06 A3024 RMK A01 T00231060  RH  054%=      5-min Rain = 0
KDMS 111410Z 01020KT 02/M06 A3024 RMK A01 T00231058  RH  055%=      5-min Rain = 0
KDMS 111415Z 01017G22KT 02/M06 A3025 RMK A01 T00231058  RH  055%=      5-min Rain = 0
KDMS 111420Z 01019G24KT 02/M06 A3025 RMK A01 T00231060  RH  054%=      5-min Rain = 0
KDMS 111425Z 01018G23KT 02/M06 A3025 RMK A01 T00231061  RH  054%=      5-min Rain = 0
KDMS 111430Z 01018KT 02/M06 A3026 RMK A01 T00231060  RH  054%=      5-min Rain = 0
KDMS 111435Z 00019G24KT 02/M06 A3026 RMK A01 T00231060  RH  054%=      5-min Rain = 0
KDMS 111440Z 01019KT 02/M06 A3026 RMK A01 T00221060  RH  054%=      5-min Rain = 0
KDMS 111445Z 00018KT 02/M06 A3027 RMK A01 T00231061  RH  054%=      5-min Rain = 0
KDMS 111450Z 00017G22KT 03/M06 A3027 RMK A01 T00261060  RH  053%=      5-min Rain = 0
KDMS 111455Z 01018G24KT 03/M06 A3027 RMK A01 T00271061  RH  052%=      5-min Rain = 0
KDMS 111500Z 01021KT 03/M06 A3027 RMK A01 T00251063  RH  052%=      5-min Rain = 0
KDMS 111505Z 00017G22KT 03/M06 A3028 RMK A01 T00261063  RH  052%=      5-min Rain = 0
KDMS 111510Z 01016G21KT 03/M06 A3028 RMK A01 T00281062  RH  052%=      5-min Rain = 0
KDMS 111515Z 36018G24KT 03/M06 A3029 RMK A01 T00281063  RH  051%=      5-min Rain = 0
KDMS 111520Z 01015G20KT 03/M06 A3029 RMK A01 T00291063  RH  051%=      5-min Rain = 0
KDMS 111525Z 00016G22KT 04/M06 A3029 RMK A01 T00361064  RH  048%=      5-min Rain = 0
KDMS 111530Z 01015KT 04/M07 A3029 RMK A01 T00401067  RH  045%=      5-min Rain = 0
KDMS 111535Z 01019KT 04/M07 A3029 RMK A01 T00411068  RH  045%=      5-min Rain = 0
KDMS 111540Z 01019KT 04/M07 A3029 RMK A01 T00431072  RH  043%=      5-min Rain = 0
KDMS 111545Z 01019G24KT 05/M07 A3029 RMK A01 T00451071  RH  043%=      5-min Rain = 0
KDMS 111550Z 01019KT 05/M07 A3029 RMK A01 T00451072  RH  042%=      5-min Rain = 0
KDMS 111555Z 01021G26KT 05/M08 A3029 RMK A01 T00471077  RH  040%=      5-min Rain = 0
KDMS 111600Z 01021G26KT 05/M08 A3029 RMK A01 T00491076  RH  040%=      5-min Rain = 0
KDMS 111605Z 02022KT 05/M08 A303 RMK A01 T00501078  RH  039%=      5-min Rain = 0
KDMS 111610Z 02022G27KT 05/M08 A303 RMK A01 T00501077  RH  040%=      5-min Rain = 0
KDMS 111615Z 01020KT 05/M08 A3029 RMK A01 T00521075  RH  039%=      5-min Rain = 0
KDMS 111620Z 00020G26KT 05/M08 A303 RMK A01 T00521077  RH  039%=      5-min Rain = 0
KDMS 111625Z 00020G25KT 05/M08 A303 RMK A01 T00501079  RH  039%=      5-min Rain = 0
KDMS 111630Z 01020G25KT 05/M08 A303 RMK A01 T00531078  RH  038%=      5-min Rain = 0
KDMS 111635Z 01019G24KT 06/M08 A303 RMK A01 T00561079  RH  037%=      5-min Rain = 0
KDMS 111640Z 00020G25KT 06/M08 A303 RMK A01 T00591081  RH  036%=      5-min Rain = 0
KDMS 111645Z 00019KT 06/M08 A303 RMK A01 T00581083  RH  035%=      5-min Rain = 0
KDMS 111650Z 01019G24KT 06/M08 A303 RMK A01 T00631082  RH  034%=      5-min Rain = 0
KDMS 111655Z 00020G26KT 07/M08 A303 RMK A01 T00671083  RH  033%=      5-min Rain = 0
KDMS 111700Z 01020G25KT 07/M09 A3031 RMK A01 T00661085  RH  033%=      5-min Rain = 0
KDMS 111705Z 01017G25KT 07/M08 A303 RMK A01 T00681083  RH  033%=      5-min Rain = 0
KDMS 111710Z 00017G23KT 07/M09 A303 RMK A01 T00681085  RH  033%=      5-min Rain = 0
KDMS 111715Z 01017G22KT 07/M09 A3031 RMK A01 T00651087  RH  033%=      5-min Rain = 0
KDMS 111720Z 00017KT 07/M09 A3031 RMK A01 T00681087  RH  032%=      5-min Rain = 0
KDMS 111725Z 00017G23KT 07/M09 A303 RMK A01 T00701087  RH  031%=      5-min Rain = 0
KDMS 111730Z 01018G25KT 07/M09 A303 RMK A01 T00741089  RH  030%=      5-min Rain = 0
KDMS 111735Z 01017G23KT 08/M09 A303 RMK A01 T00781091  RH  029%=      5-min Rain = 0
KDMS 111740Z 01019KT 08/M09 A303 RMK A01 T00801092  RH  028%=      5-min Rain = 0
KDMS 111745Z 01022G27KT 08/M09 A303 RMK A01 T00821094  RH  028%=      5-min Rain = 0
KDMS 111750Z 01018KT 08/M09 A303 RMK A01 T00831092  RH  028%=      5-min Rain = 0
KDMS 111755Z 01017G25KT 08/M09 A303 RMK A01 T00831091  RH  028%=      5-min Rain = 0
KDMS 111800Z 01018G23KT 09/M09 A303 RMK A01 T00881090  RH  027%=      5-min Rain = 0
KDMS 111805Z 01017KT 09/M09 A303 RMK A01 T00881090  RH  027%=      5-min Rain = 0
KDMS 111810Z 01018G23KT 09/M09 A303 RMK A01 T00891094  RH  026%=      5-min Rain = 0
KDMS 111815Z 02019G25KT 09/M09 A303 RMK A01 T00911094  RH  026%=      5-min Rain = 0
KDMS 111820Z 00018G24KT 09/M10 A303 RMK A01 T00921096  RH  025%=      5-min Rain = 0
KDMS 111825Z 01019G24KT 09/M10 A303 RMK A01 T00941097  RH  025%=      5-min Rain = 0
KDMS 111830Z 02018KT 09/M10 A303 RMK A01 T00931097  RH  025%=      5-min Rain = 0
KDMS 111835Z 00018G23KT 10/M10 A303 RMK A01 T00951099  RH  024%=      5-min Rain = 0
KDMS 111840Z 02019G25KT 09/M10 A303 RMK A01 T00941100  RH  024%=      5-min Rain = 0
KDMS 111845Z 01015G22KT 09/M10 A303 RMK A01 T00921099  RH  025%=      5-min Rain = 0
KDMS 111850Z 36019KT 09/M11 A303 RMK A01 T00911106  RH  023%=      5-min Rain = 0
KDMS 111855Z 00017G22KT 09/M11 A303 RMK A01 T00891106  RH  024%=      5-min Rain = 0
KDMS 111900Z 36015G21KT 09/M10 A303 RMK A01 T00891104  RH  024%=      5-min Rain = 0
KDMS 111905Z 00016G21KT 09/M11 A303 RMK A01 T00911106  RH  023%=      5-min Rain = 0
KDMS 111910Z 01016G22KT 09/M11 A303 RMK A01 T00931106  RH  023%=      5-min Rain = 0
KDMS 111915Z 01013G20KT 09/M11 A303 RMK A01 T00901107  RH  024%=      5-min Rain = 0
KDMS 111920Z 36017G25KT 10/M11 A303 RMK A01 T00951105  RH  023%=      5-min Rain = 0
KDMS 111925Z 36017G23KT 09/M11 A303 RMK A01 T00941106  RH  023%=      5-min Rain = 0
KDMS 111930Z 01015G22KT 10/M10 A3029 RMK A01 T00981101  RH  023%=      5-min Rain = 0
KDMS 111935Z 36014G23KT 10/M10 A3029 RMK A01 T01001103  RH  023%=      5-min Rain = 0
KDMS 111940Z 00016G22KT 11/M10 A3029 RMK A01 T01051099  RH  023%=      5-min Rain = 0
KDMS 111945Z 35016G22KT 10/M10 A3029 RMK A01 T01031102  RH  023%=      5-min Rain = 0
KDMS 111950Z 36014G20KT 10/M10 A3029 RMK A01 T00991104  RH  023%=      5-min Rain = 0
KDMS 111955Z 36015G21KT 10/M10 A3029 RMK A01 T00971103  RH  023%=      5-min Rain = 0
KDMS 112000Z 01015G21KT 10/M10 A3029 RMK A01 T00971103  RH  023%=      5-min Rain = 0
KDMS 112005Z 35014G21KT 10/M10 A3029 RMK A01 T00981103  RH  023%=      5-min Rain = 0
KDMS 112010Z 00014KT 10/M10 A3028 RMK A01 T00961103  RH  023%=      5-min Rain = 0
KDMS 112015Z 03015G21KT 10/M10 A3028 RMK A01 T00961103  RH  023%=      5-min Rain = 0
KDMS 112020Z 02014KT 10/M10 A3028 RMK A01 T00981103  RH  023%=      5-min Rain = 0
KDMS 112025Z 01016KT 10/M11 A3028 RMK A01 T01001105  RH  022%=      5-min Rain = 0
KDMS 112030Z 01014KT 10/M11 A3028 RMK A01 T01001105  RH  022%=      5-min Rain = 0
KDMS 112035Z 00010G16KT 10/M10 A3028 RMK A01 T01041104  RH  022%=      5-min Rain = 0
KDMS 112040Z 35014G21KT 11/M10 A3027 RMK A01 T01101103  RH  021%=      5-min Rain = 0
KDMS 112045Z 00017G24KT 11/M10 A3027 RMK A01 T01121104  RH  021%=      5-min Rain = 0
KDMS 112050Z 36013G18KT 11/M11 A3027 RMK A01 T01091106  RH  021%=      5-min Rain = 0
KDMS 112055Z 01017G22KT 11/M10 A3027 RMK A01 T01121103  RH  021%=      5-min Rain = 0
KDMS 112100Z 01014G19KT 11/M10 A3027 RMK A01 T01121103  RH  021%=      5-min Rain = 0
KDMS 112105Z 35013G18KT 11/M10 A3027 RMK A01 T01141101  RH  021%=      5-min Rain = 0
KDMS 112110Z 01014G20KT 11/M10 A3027 RMK A01 T01121103  RH  021%=      5-min Rain = 0
KDMS 112115Z 02014G19KT 11/M10 A3026 RMK A01 T01091100  RH  022%=      5-min Rain = 0
KDMS 112120Z 36014G19KT 12/M10 A3026 RMK A01 T01171099  RH  021%=      5-min Rain = 0
KDMS 112125Z 01015G21KT 12/M10 A3026 RMK A01 T01151100  RH  021%=      5-min Rain = 0
KDMS 112130Z 00013G18KT 12/M10 A3026 RMK A01 T01171099  RH  021%=      5-min Rain = 0
KDMS 112135Z 02016G22KT 12/M10 A3026 RMK A01 T01151100  RH  021%=      5-min Rain = 0
KDMS 112140Z 01013KT 12/M10 A3026 RMK A01 T01161097  RH  021%=      5-min Rain = 0
KDMS 112145Z 00013G20KT 12/M10 A3026 RMK A01 T01151099  RH  021%=      5-min Rain = 0
KDMS 112150Z 36013G20KT 12/M10 A3026 RMK A01 T01151099  RH  021%=      5-min Rain = 0
KDMS 112155Z 35013G18KT 12/M10 A3026 RMK A01 T01151098  RH  021%=      5-min Rain = 0
KDMS 112200Z 36012G18KT 12/M10 A3026 RMK A01 T01151099  RH  021%=      5-min Rain = 0
KDMS 112205Z 36013G21KT 12/M10 A3026 RMK A01 T01171100  RH  021%=      5-min Rain = 0
KDMS 112210Z 01011G18KT 12/M10 A3026 RMK A01 T01151102  RH  021%=      5-min Rain = 0
KDMS 112215Z 01011KT 11/M10 A3026 RMK A01 T01141103  RH  021%=      5-min Rain = 0
KDMS 112220Z 00014G19KT 11/M10 A3026 RMK A01 T01141099  RH  021%=      5-min Rain = 0
KDMS 112225Z 00012KT 12/M10 A3026 RMK A01 T01151098  RH  021%=      5-min Rain = 0
KDMS 112230Z 35009KT 12/M10 A3026 RMK A01 T01161098  RH  021%=      5-min Rain = 0
KDMS 112235Z 02011KT 12/M10 A3026 RMK A01 T01181096  RH  021%=      5-min Rain = 0
KDMS 112240Z 01012G18KT 12/M10 A3026 RMK A01 T01171100  RH  021%=      5-min Rain = 0
KDMS 112245Z 35014G19KT 12/M11 A3026 RMK A01 T01191105  RH  020%=      5-min Rain = 0
KDMS 112250Z 36012KT 11/M11 A3026 RMK A01 T01141107  RH  020%=      5-min Rain = 0
KDMS 112255Z 00013G19KT 11/M11 A3027 RMK A01 T01121108  RH  020%=      5-min Rain = 0
KDMS 112300Z 01014KT 11/M11 A3027 RMK A01 T01121111  RH  020%=      5-min Rain = 0
KDMS 112305Z 36013KT 11/M11 A3027 RMK A01 T01121113  RH  019%=      5-min Rain = 0
KDMS 112310Z 01012KT 11/M12 A3027 RMK A01 T01101115  RH  019%=      5-min Rain = 0
KDMS 112315Z 00013KT 11/M12 A3027 RMK A01 T01101117  RH  019%=      5-min Rain = 0
KDMS 112320Z 01013KT 11/M12 A3027 RMK A01 T01051119  RH  019%=      5-min Rain = 0
KDMS 112325Z 36013KT 10/M12 A3027 RMK A01 T01041120  RH  019%=      5-min Rain = 0
KDMS 112330Z 00012KT 11/M12 A3028 RMK A01 T01061119  RH  019%=      5-min Rain = 0
KDMS 112335Z 01013KT 11/M12 A3028 RMK A01 T01061122  RH  019%=      5-min Rain = 0
KDMS 112340Z 01011KT 11/M13 A3028 RMK A01 T01071125  RH  018%=      5-min Rain = 0
KDMS 112345Z 01012KT 11/M13 A3028 RMK A01 T01051130  RH  018%=      5-min Rain = 0
KDMS 112350Z 01012KT 10/M13 A3028 RMK A01 T01041131  RH  018%=      5-min Rain = 0
KDMS 112355Z 01012KT 10/M13 A3028 RMK A01 T01021129  RH  018%=      5-min Rain = 0
KDMS 120000Z 01014KT 10/M13 A3028 RMK A01 T01021129  RH  018%=      5-min Rain = 0
KDMS 120005Z 01014KT 10/M13 A3029 RMK A01 T01031129  RH  018%=      5-min Rain = 0
KDMS 120010Z 01012G17KT 10/M13 A3029 RMK A01 T01021130  RH  018%=      5-min Rain = 0
KDMS 120015Z 02013KT 10/M13 A3029 RMK A01 T00991133  RH  018%=      5-min Rain = 0
KDMS 120020Z 02013KT 10/M14 A3029 RMK A01 T00981135  RH  018%=      5-min Rain = 0
KDMS 120025Z 01011KT 10/M14 A3029 RMK A01 T00951137  RH  018%=      5-min Rain = 0
KDMS 120030Z 01011KT 09/M14 A3029 RMK A01 T00921138  RH  018%=      5-min Rain = 0
KDMS 120035Z 01010KT 09/M14 A303 RMK A01 T00901138  RH  018%=      5-min Rain = 0
KDMS 120040Z 01009KT 09/M14 A303 RMK A01 T00871139  RH  019%=      5-min Rain = 0
KDMS 120045Z 02008KT 09/M14 A303 RMK A01 T00851139  RH  019%=      5-min Rain = 0
KDMS 120050Z 02007KT 08/M14 A303 RMK A01 T00831139  RH  019%=      5-min Rain = 0
KDMS 120055Z 02007KT 08/M14 A303 RMK A01 T00801137  RH  020%=      5-min Rain = 0
KDMS 120100Z 02006KT 08/M14 A303 RMK A01 T00751135  RH  021%=      5-min Rain = 0
KDMS 120105Z 02007KT 07/M13 A303 RMK A01 T00691134  RH  022%=      5-min Rain = 0
KDMS 120110Z 02007KT 07/M13 A3031 RMK A01 T00661133  RH  022%=      5-min Rain = 0
KDMS 120115Z 02006KT 06/M13 A3031 RMK A01 T00611133  RH  023%=      5-min Rain = 0
KDMS 120120Z 02005KT 06/M13 A3031 RMK A01 T00571134  RH  024%=      5-min Rain = 0
KDMS 120125Z 02005KT 06/M14 A3031 RMK A01 T00581137  RH  023%=      5-min Rain = 0
KDMS 120130Z 01005KT 06/M14 A3031 RMK A01 T00591138  RH  023%=      5-min Rain = 0
KDMS 120135Z 01006KT 06/M14 A3031 RMK A01 T00561135  RH  024%=      5-min Rain = 0
KDMS 120140Z 01006KT 06/M13 A3032 RMK A01 T00561129  RH  025%=      5-min Rain = 0
KDMS 120145Z 00006KT 06/M13 A3032 RMK A01 T00581130  RH  024%=      5-min Rain = 0
KDMS 120150Z 00006KT 06/M13 A3032 RMK A01 T00561132  RH  024%=      5-min Rain = 0
KDMS 120155Z 36006KT 05/M13 A3032 RMK A01 T00511129  RH  026%=      5-min Rain = 0
KDMS 120200Z 01006KT 05/M13 A3032 RMK A01 T00521131  RH  025%=      5-min Rain = 0
KDMS 120205Z 01006KT 04/M13 A3032 RMK A01 T00441132  RH  026%=      5-min Rain = 0
KDMS 120210Z 01007KT 04/M13 A3032 RMK A01 T00391133  RH  027%=      5-min Rain = 0
KDMS 120215Z 01007KT 04/M13 A3032 RMK A01 T00391132  RH  027%=      5-min Rain = 0
KDMS 120220Z 01006KT 04/M13 A3032 RMK A01 T00371132  RH  028%=      5-min Rain = 0
KDMS 120225Z 01006KT 04/M13 A3032 RMK A01 T00351132  RH  028%=      5-min Rain = 0
KDMS 120230Z 01006KT 04/M13 A3033 RMK A01 T00361132  RH  028%=      5-min Rain = 0
KDMS 120235Z 00006KT 04/M13 A3033 RMK A01 T00381130  RH  028%=      5-min Rain = 0
KDMS 120240Z 01006KT 04/M13 A3033 RMK A01 T00381128  RH  028%=      5-min Rain = 0
KDMS 120245Z 01006KT 04/M13 A3033 RMK A01 T00371126  RH  029%=      5-min Rain = 0
KDMS 120250Z 02006KT 04/M13 A3033 RMK A01 T00371130  RH  028%=      5-min Rain = 0
KDMS 120255Z 02007KT 03/M13 A3033 RMK A01 T00341133  RH  028%=      5-min Rain = 0
KDMS 120300Z 03007KT 03/M13 A3033 RMK A01 T00291132  RH  029%=      5-min Rain = 0
KDMS 120305Z 03008KT 03/M13 A3033 RMK A01 T00291127  RH  030%=      5-min Rain = 0
KDMS 120310Z 03008KT 03/M13 A3034 RMK A01 T00311125  RH  030%=      5-min Rain = 0
KDMS 120315Z 03007KT 03/M13 A3034 RMK A01 T00291128  RH  030%=      5-min Rain = 0
KDMS 120320Z 03007KT 02/M13 A3034 RMK A01 T00201132  RH  031%=      5-min Rain = 0
KDMS 120325Z 03007KT 02/M13 A3034 RMK A01 T00161132  RH  032%=      5-min Rain = 0
KDMS 120330Z 03007KT 01/M13 A3034 RMK A01 T00121133  RH  033%=      5-min Rain = 0
KDMS 120335Z 03006KT 01/M13 A3034 RMK A01 T00091133  RH  033%=      5-min Rain = 0
KDMS 120340Z 04007KT 01/M13 A3034 RMK A01 T00111132  RH  033%=      5-min Rain = 0
KDMS 120345Z 04007KT 02/M13 A3034 RMK A01 T00151130  RH  033%=      5-min Rain = 0
KDMS 120350Z 04007KT 02/M13 A3035 RMK A01 T00171128  RH  033%=      5-min Rain = 0
KDMS 120355Z 05007KT 02/M12 A3035 RMK A01 T00181123  RH  034%=      5-min Rain = 0
KDMS 120400Z 05007KT 02/M12 A3034 RMK A01 T00221122  RH  033%=      5-min Rain = 0
KDMS 120405Z 04007KT 02/M12 A3035 RMK A01 T00231120  RH  034%=      5-min Rain = 0
KDMS 120410Z 04006KT 02/M12 A3035 RMK A01 T00231120  RH  034%=      5-min Rain = 0
KDMS 120415Z 04007KT 02/M12 A3035 RMK A01 T00241119  RH  034%=      5-min Rain = 0
KDMS 120420Z 04007KT 03/M12 A3034 RMK A01 T00261120  RH  033%=      5-min Rain = 0
KDMS 120425Z 04007KT 03/M12 A3035 RMK A01 T00271122  RH  032%=      5-min Rain = 0
KDMS 120430Z 04006KT 03/M12 A3035 RMK A01 T00281122  RH  032%=      5-min Rain = 0
KDMS 120435Z 04006KT 03/M12 A3035 RMK A01 T00281122  RH  032%=      5-min Rain = 0
KDMS 120440Z 04006KT 03/M12 A3035 RMK A01 T00281124  RH  032%=      5-min Rain = 0
KDMS 120445Z 05006KT 03/M13 A3035 RMK A01 T00271126  RH  031%=      5-min Rain = 0
KDMS 120450Z 05006KT 02/M13 A3035 RMK A01 T00241127  RH  031%=      5-min Rain = 0
KDMS 120455Z 05006KT 02/M13 A3035 RMK A01 T00211129  RH  032%=      5-min Rain = 0

Page generated in 0.0087 seconds.